Time;durP1;ratioP1;P1;durP2;ratioP2;P2;SDS_P1;SDS_P2;PMS_P1;PMS_P2;Temp;Humidity;BMP_temperature;BMP_pressure;BME280_temperature;BME280_humidity;BME280_pressure;Samples;Min_cycle;Max_cycle;Signal;HPM_P1;HPM_P2
2022/11/16 00:02:30;;;;;;;20.00;16.00;;;;;;;10.62;100.00;99731.88;5218759;28;20033;-71
2022/11/16 00:05:02;;;;;;;12.33;10.07;;;;;;;10.64;100.00;99741.28;5215268;28;20030;-71
2022/11/16 00:07:33;;;;;;;15.97;11.70;;;;;;;10.67;100.00;99734.13;5197818;28;20037;-72
2022/11/16 00:10:05;;;;;;;13.27;9.43;;;;;;;10.66;100.00;99728.06;5214933;28;20060;-72
2022/11/16 00:12:38;;;;;;;14.03;11.50;;;;;;;10.67;100.00;99737.56;5215136;28;20133;-71
2022/11/16 00:15:09;;;;;;;14.03;10.63;;;;;;;10.60;100.00;99744.25;5216056;28;20030;-71
2022/11/16 00:17:40;;;;;;;14.43;10.60;;;;;;;10.73;100.00;99749.38;5215738;28;20062;-71
2022/11/16 00:20:12;;;;;;;15.83;10.83;;;;;;;10.64;100.00;99743.91;5197941;28;20029;-72
2022/11/16 00:22:43;;;;;;;15.10;10.47;;;;;;;10.68;100.00;99735.81;5202423;28;20022;-71
2022/11/16 00:25:14;;;;;;;12.77;11.00;;;;;;;10.67;100.00;99728.88;5234430;28;20099;-72
2022/11/16 00:27:45;;;;;;;12.27;10.07;;;;;;;10.72;100.00;99747.69;5221989;28;20137;-71
2022/11/16 00:30:17;;;;;;;11.80;9.83;;;;;;;10.71;100.00;99748.66;5197873;28;20034;-72
2022/11/16 00:32:48;;;;;;;11.07;9.97;;;;;;;10.62;100.00;99739.72;5216348;28;20026;-73
2022/11/16 00:35:19;;;;;;;10.87;9.77;;;;;;;10.67;100.00;99734.13;5218817;28;20037;-72
2022/11/16 00:37:51;;;;;;;12.43;10.77;;;;;;;10.67;100.00;99726.25;5215387;28;20026;-73
2022/11/16 00:40:22;;;;;;;11.67;10.50;;;;;;;10.67;100.00;99721.03;5214054;28;20034;-73
2022/11/16 00:42:54;;;;;;;12.20;10.83;;;;;;;10.61;100.00;99720.53;5214814;28;20062;-71
2022/11/16 00:45:25;;;;;;;12.87;9.83;;;;;;;10.64;100.00;99709.03;5230039;28;20030;-72
2022/11/16 00:47:56;;;;;;;12.00;10.27;;;;;;;10.56;100.00;99693.09;5196696;28;20037;-72
2022/11/16 00:50:27;;;;;;;13.90;9.60;;;;;;;10.59;100.00;99706.78;5214421;28;20038;-73
2022/11/16 00:52:59;;;;;;;14.03;10.97;;;;;;;10.55;100.00;99715.81;5214404;28;20037;-72
2022/11/16 00:55:31;;;;;;;12.73;10.67;;;;;;;10.61;100.00;99731.03;5213947;28;20082;-72
2022/11/16 00:58:02;;;;;;;11.70;10.00;;;;;;;10.53;100.00;99722.94;5213657;28;20030;-73
2022/11/16 01:00:33;;;;;;;13.03;10.60;;;;;;;10.61;100.00;99720.53;5214455;28;20029;-73
2022/11/16 01:03:05;;;;;;;10.50;9.13;;;;;;;10.59;100.00;99722.47;5214994;28;20033;-72
2022/11/16 01:05:37;;;;;;;11.23;9.90;;;;;;;10.63;100.00;99708.19;5214436;28;20113;-72
2022/11/16 01:08:08;;;;;;;13.93;11.53;;;;;;;10.65;100.00;99722.00;5214551;28;20034;-72
2022/11/16 01:10:40;;;;;;;11.77;9.30;;;;;;;10.65;100.00;99721.16;5213552;28;20522;-73
2022/11/16 01:13:12;;;;;;;12.40;9.73;;;;;;;10.66;100.00;99714.97;5214268;28;20038;-73
2022/11/16 01:15:47;;;;;;;12.23;9.13;;;;;;;10.68;100.00;99709.63;5214592;28;20033;-72
2022/11/16 01:18:18;;;;;;;13.80;9.80;;;;;;;10.70;100.00;99707.72;5214090;28;20026;-73
2022/11/16 01:20:51;;;;;;;25.70;17.20;;;;;;;10.69;100.00;99701.63;5196603;28;20758;-73
2022/11/16 01:23:22;;;;;;;11.37;9.73;;;;;;;10.69;100.00;99698.16;5207182;28;20033;-73
2022/11/16 01:25:58;;;;;;;11.27;9.10;;;;;;;10.70;100.00;99702.47;5216364;28;20801;-73
2022/11/16 01:28:30;;;;;;;10.27;8.97;;;;;;;10.69;100.00;99690.31;5236043;28;20028;-73
2022/11/16 01:31:01;;;;;;;10.57;9.03;;;;;;;10.62;100.00;99695.22;5217218;28;20022;-72
2022/11/16 01:33:32;;;;;;;10.30;8.90;;;;;;;10.71;100.00;99693.66;5234567;28;20025;-73
2022/11/16 01:36:13;;;;;;;10.13;8.50;;;;;;;10.67;100.00;99697.47;5234707;28;20595;-73
2022/11/16 01:38:45;;;;;;;10.00;8.20;;;;;;;10.73;100.00;99697.84;5216211;28;20022;-71
2022/11/16 01:41:22;;;;;;;9.13;8.03;;;;;;;10.71;100.00;99691.88;5235082;28;20029;-72
2022/11/16 01:44:03;;;;;;;9.83;8.37;;;;;;;10.70;100.00;99684.94;5233528;28;20071;-72
2022/11/16 01:46:34;;;;;;;9.40;8.50;;;;;;;10.73;100.00;99686.50;5216833;28;20052;-73
2022/11/16 01:49:11;;;;;;;11.33;9.63;;;;;;;10.75;100.00;99695.91;5216748;28;20083;-71
2022/11/16 01:51:48;;;;;;;9.60;8.60;;;;;;;10.77;100.00;99698.38;5234134;28;20033;-73
2022/11/16 01:54:19;;;;;;;12.53;9.47;;;;;;;10.76;100.00;99684.47;5217234;28;20498;-72
2022/11/16 01:56:52;;;;;;;10.50;9.20;;;;;;;10.77;100.00;99687.91;5237353;28;20034;-73
2022/11/16 01:59:24;;;;;;;13.20;9.53;;;;;;;10.71;100.00;99678.78;5236794;28;20503;-72
2022/11/16 02:01:58;;;;;;;12.60;9.40;;;;;;;10.76;100.00;99681.03;5218290;28;20037;-73
2022/11/16 02:04:29;;;;;;;10.25;9.25;;;;;;;10.79;100.00;99686.00;5234098;28;20060;-71
2022/11/16 02:07:11;;;;;;;13.30;10.37;;;;;;;10.77;100.00;99682.69;5233638;28;20029;-72
2022/11/16 02:09:55;;;;;;;10.97;9.57;;;;;;;10.80;100.00;99684.22;5232824;28;20025;-72
2022/11/16 02:12:55;;;;;;;10.65;9.48;;;;;;;10.84;100.00;99678.63;5233936;28;20097;-72
2022/11/16 02:15:34;;;;;;;12.80;9.53;;;;;;;10.77;100.00;99680.06;5216479;28;20068;-71
2022/11/16 02:18:32;;;;;;;10.67;9.57;;;;;;;10.76;100.00;99666.16;5218092;28;20480;-72
2022/11/16 02:21:23;;;;;;;11.90;9.73;;;;;;;10.84;100.00;99675.19;5216120;28;20079;-72
2022/11/16 02:24:09;;;;;;;12.23;9.27;;;;;;;10.78;100.00;99676.50;5200035;28;20042;-71
2022/11/16 02:27:03;;;;;;;10.70;9.40;;;;;;;10.85;100.00;99677.69;5212954;28;20077;-71
2022/11/16 02:29:40;;;;;;;10.77;9.40;;;;;;;10.79;100.00;99665.06;5195567;28;20057;-72
2022/11/16 02:32:16;;;;;;;13.60;9.40;;;;;;;10.84;100.00;99677.81;5196090;28;20034;-71
2022/11/16 02:34:49;;;;;;;11.80;9.00;;;;;;;10.86;100.00;99671.47;5212616;28;20025;-71
2022/11/16 02:37:23;;;;;;;13.63;9.03;;;;;;;10.89;100.00;99678.28;5195773;28;20038;-71
2022/11/16 02:40:01;;;;;;;11.38;8.48;;;;;;;10.89;100.00;99681.69;5195146;28;20034;-72
2022/11/16 02:43:09;;;;;;;7.30;6.53;;;;;;;10.94;100.00;99683.13;5213742;28;20400;-72
2022/11/16 02:45:44;;;;;;;6.57;5.97;;;;;;;10.87;100.00;99672.31;5214443;28;20026;-72
2022/11/16 02:48:27;;;;;;;10.50;6.40;;;;;;;10.86;100.00;99681.97;5214036;28;20036;-72
2022/11/16 02:50:58;;;;;;;7.27;6.07;;;;;;;10.84;100.00;99688.28;5213842;28;20030;-71
2022/11/16 02:53:35;;;;;;;6.70;5.80;;;;;;;10.84;100.00;99694.34;5196551;28;20532;-72
2022/11/16 02:56:12;;;;;;;7.40;6.27;;;;;;;10.90;100.00;99700.88;5213477;28;20583;-72
2022/11/16 02:58:44;;;;;;;8.17;7.33;;;;;;;10.87;100.00;99699.31;5213313;28;20034;-72
2022/11/16 03:01:26;;;;;;;10.03;7.90;;;;;;;10.84;100.00;99693.53;5195436;28;20050;-72
2022/11/16 03:04:07;;;;;;;10.20;6.93;;;;;;;10.85;100.00;99685.53;5212732;28;20853;-72
2022/11/16 03:06:40;;;;;;;7.27;6.57;;;;;;;10.82;100.00;99687.56;5194965;28;20825;-72
2022/11/16 03:09:20;;;;;;;7.77;6.27;;;;;;;10.79;100.00;99679.97;5210747;28;20034;-72
2022/11/16 03:11:58;;;;;;;13.93;6.97;;;;;;;10.80;100.00;99682.47;5194557;28;20109;-72
2022/11/16 03:14:49;;;;;;;8.43;7.03;;;;;;;10.79;100.00;99685.19;5212860;28;20025;-72
2022/11/16 03:17:44;;;;;;;5.37;4.87;;;;;;;10.74;100.00;99682.94;5212763;28;20759;-72
2022/11/16 03:20:21;;;;;;;8.65;5.65;;;;;;;10.77;100.00;99693.16;5194681;28;20068;-71
2022/11/16 03:22:59;;;;;;;6.10;4.10;;;;;;;10.74;100.00;99699.47;5217590;28;20030;-71
2022/11/16 03:25:39;;;;;;;5.03;3.73;;;;;;;10.73;100.00;99699.59;5214522;28;20029;-71
2022/11/16 03:29:01;;;;;;;5.97;3.40;;;;;;;10.72;100.00;99701.38;5233280;28;20090;-72
2022/11/16 03:31:47;;;;;;;3.73;2.90;;;;;;;10.61;100.00;99706.66;5168577;28;20421;-72
2022/11/16 03:34:24;;;;;;;3.50;2.30;;;;;;;10.61;100.00;99710.06;5169468;28;20038;-71
2022/11/16 03:36:59;;;;;;;3.83;2.77;;;;;;;10.53;100.00;99705.47;5218309;28;20508;-72
2022/11/16 03:39:37;;;;;;;29.35;3.60;;;;;;;10.56;100.00;99714.03;5232265;28;20425;-72
2022/11/16 03:42:15;;;;;;;3.47;2.30;;;;;;;10.51;100.00;99706.50;5232751;28;20026;-72
2022/11/16 03:44:48;;;;;;;5.23;2.80;;;;;;;10.50;100.00;99707.47;5232606;28;20048;-72
2022/11/16 03:47:19;;;;;;;3.90;2.73;;;;;;;10.48;100.00;99714.63;5232889;28;20116;-71
2022/11/16 03:49:51;;;;;;;3.37;2.53;;;;;;;10.28;100.00;99709.94;5232332;28;20112;-72
2022/11/16 03:52:22;;;;;;;3.73;2.90;;;;;;;10.51;100.00;99727.44;5232774;28;20038;-73
2022/11/16 03:54:53;;;;;;;4.50;3.17;;;;;;;10.39;100.00;99723.97;5231227;28;20032;-72
2022/11/16 03:57:25;;;;;;;4.73;3.27;;;;;;;10.41;100.00;99737.78;5235570;28;20091;-72
2022/11/16 03:59:57;;;;;;;4.13;3.00;;;;;;;10.41;100.00;99746.47;5234059;28;20108;-72
2022/11/16 04:02:28;;;;;;;3.30;2.77;;;;;;;10.40;100.00;99738.75;5232577;28;20042;-72
2022/11/16 04:25:20;;;;;;;6.33;2.10;;;;;;;10.21;100.00;99744.56;5210983;28;20038;-72
2022/11/16 04:39:21;;;;;;;5.17;2.43;;;;;;;10.10;100.00;99746.19;5215135;28;20050;-72
2022/11/16 04:47:32;;;;;;;6.13;3.03;;;;;;;9.96;100.00;99747.25;5214972;28;20501;-74
2022/11/16 04:50:04;;;;;;;7.10;2.60;;;;;;;10.04;100.00;99770.19;5215439;28;20034;-72
2022/11/16 04:52:35;;;;;;;6.33;3.10;;;;;;;9.98;100.00;99770.66;5195530;28;20076;-71
2022/11/16 04:55:07;;;;;;;8.70;3.10;;;;;;;9.86;100.00;99767.19;5194283;28;20050;-72
2022/11/16 04:57:39;;;;;;;6.30;3.23;;;;;;;9.91;100.00;99775.53;5214477;28;20468;-71
2022/11/16 05:00:11;;;;;;;5.53;2.87;;;;;;;9.88;100.00;99781.81;5214893;28;20050;-71
2022/11/16 05:02:42;;;;;;;7.27;3.43;;;;;;;9.88;100.00;99786.22;5214804;28;20034;-72
2022/11/16 05:05:13;;;;;;;7.87;3.50;;;;;;;9.91;100.00;99786.78;5214773;28;20026;-72
2022/11/16 05:07:45;;;;;;;5.87;3.37;;;;;;;9.82;100.00;99777.03;5214250;28;20038;-71
2022/11/16 05:10:17;;;;;;;6.07;3.10;;;;;;;9.91;100.00;99780.75;5214371;28;20113;-72
2022/11/16 05:12:48;;;;;;;8.07;3.63;;;;;;;9.81;100.00;99780.59;5218755;28;20049;-72
2022/11/16 05:15:19;;;;;;;9.73;3.57;;;;;;;9.87;100.00;99782.75;5215113;28;20042;-72
2022/11/16 05:17:53;;;;;;;8.87;3.23;;;;;;;9.77;100.00;99781.78;5214592;28;20058;-72
2022/11/16 05:26:04;;;;;;;6.73;3.23;;;;;;;9.68;100.00;99778.91;5234710;28;20424;-72
2022/11/16 05:28:36;;;;;;;8.80;3.10;;;;;;;9.62;100.00;99778.47;5234700;28;20033;-72
2022/11/16 05:31:07;;;;;;;6.30;3.50;;;;;;;9.65;100.00;99771.25;5235145;28;20883;-72
2022/11/16 05:33:38;;;;;;;6.00;2.93;;;;;;;9.57;100.00;99768.38;5234564;28;20056;-72
2022/11/16 05:36:09;;;;;;;5.70;3.37;;;;;;;9.59;100.00;99771.72;5234844;28;20091;-72
2022/11/16 05:38:41;;;;;;;9.57;3.60;;;;;;;9.39;100.00;99763.53;5233459;28;20032;-72
2022/11/16 05:41:12;;;;;;;10.17;3.33;;;;;;;9.25;100.00;99767.13;5217219;28;20044;-72
2022/11/16 05:43:43;;;;;;;8.80;3.13;;;;;;;9.39;100.00;99774.00;5234246;28;20026;-72
2022/11/16 05:46:14;;;;;;;7.70;3.50;;;;;;;9.24;100.00;99778.53;5216121;28;20042;-71
2022/11/16 05:48:46;;;;;;;6.67;3.80;;;;;;;9.29;100.00;99773.81;5234824;28;20033;-71
2022/11/16 05:51:17;;;;;;;7.87;3.97;;;;;;;9.24;100.00;99782.94;5234840;28;20021;-71
2022/11/16 05:53:48;;;;;;;11.27;5.00;;;;;;;9.40;100.00;99782.66;5232867;28;20021;-71
2022/11/16 05:56:19;;;;;;;5.00;2.87;;;;;;;9.15;100.00;99790.47;5234686;28;20033;-72
2022/11/16 05:58:51;;;;;;;9.90;3.20;;;;;;;9.05;100.00;99781.63;5216650;28;20025;-71
2022/11/16 06:01:23;;;;;;;8.07;3.90;;;;;;;9.16;100.00;99797.38;5216592;28;20029;-72
2022/11/16 06:03:54;;;;;;;7.83;4.50;;;;;;;9.13;100.00;99791.56;5216074;28;20033;-71
2022/11/16 06:06:26;;;;;;;9.23;4.37;;;;;;;9.06;100.00;99794.56;5234375;28;20026;-71
2022/11/16 06:08:58;;;;;;;8.60;4.20;;;;;;;9.17;100.00;99799.06;5233173;28;20030;-71
2022/11/16 06:11:31;;;;;;;6.90;3.53;;;;;;;9.11;100.00;99794.25;5235451;28;20053;-71
2022/11/16 06:14:03;;;;;;;10.37;5.20;;;;;;;9.10;100.00;99792.59;5215679;28;20073;-73
2022/11/16 06:16:34;;;;;;;5.30;4.27;;;;;;;9.10;100.00;99800.44;5234779;28;20041;-72
2022/11/16 06:19:05;;;;;;;7.53;4.37;;;;;;;8.99;100.00;99805.59;5219084;28;20047;-71
2022/11/16 06:21:37;;;;;;;11.00;4.07;;;;;;;8.76;100.00;99801.00;5218366;28;20033;-72
2022/11/16 06:24:08;;;;;;;10.47;3.60;;;;;;;8.76;100.00;99806.22;5235140;28;20033;-72
2022/11/16 06:26:39;;;;;;;8.80;4.40;;;;;;;8.93;100.00;99802.47;5203916;28;20025;-72
2022/11/16 06:29:10;;;;;;;9.63;5.37;;;;;;;8.94;100.00;99808.50;5215157;28;20026;-72
2022/11/16 06:31:42;;;;;;;7.40;4.33;;;;;;;8.94;100.00;99829.38;5214161;28;20034;-72
2022/11/16 06:34:13;;;;;;;9.97;3.97;;;;;;;8.89;100.00;99829.72;5214409;28;20084;-71
2022/11/16 06:36:44;;;;;;;9.60;4.37;;;;;;;8.86;100.00;99818.66;5213238;28;20443;-72
2022/11/16 06:39:16;;;;;;;13.23;4.07;;;;;;;8.89;100.00;99823.66;5194166;28;20054;-73
2022/11/16 06:41:47;;;;;;;11.43;4.07;;;;;;;8.69;100.00;99824.06;5212775;28;20041;-72
2022/11/16 06:44:18;;;;;;;12.30;3.33;;;;;;;8.84;100.00;99829.19;5213220;28;20030;-72
2022/11/16 06:46:49;;;;;;;10.07;3.77;;;;;;;8.90;100.00;99822.72;5211012;28;20497;-72
2022/11/16 06:49:21;;;;;;;13.40;3.83;;;;;;;8.87;100.00;99833.34;5213090;28;20473;-72
2022/11/16 06:51:52;;;;;;;10.07;4.03;;;;;;;8.82;100.00;99831.06;5212350;28;20057;-73
2022/11/16 06:54:23;;;;;;;15.27;4.00;;;;;;;8.82;100.00;99841.50;5215526;28;20057;-73
2022/11/16 06:56:54;;;;;;;14.30;4.27;;;;;;;8.73;100.00;99839.56;5213158;28;20030;-72
2022/11/16 06:59:26;;;;;;;11.83;4.00;;;;;;;8.74;100.00;99834.22;5212337;28;20080;-72
2022/11/16 07:01:57;;;;;;;10.50;3.70;;;;;;;8.67;100.00;99836.41;5212554;28;20041;-71
2022/11/16 07:04:30;;;;;;;9.33;3.90;;;;;;;8.61;100.00;99842.03;5209913;28;20080;-71
2022/11/16 07:07:01;;;;;;;8.90;4.20;;;;;;;8.73;100.00;99844.78;5211921;28;20542;-72
2022/11/16 07:09:32;;;;;;;9.90;4.33;;;;;;;8.59;100.00;99838.69;5208273;28;20030;-73
2022/11/16 07:12:04;;;;;;;9.17;4.47;;;;;;;8.69;100.00;99847.56;5206243;28;20086;-72
2022/11/16 07:14:35;;;;;;;10.70;4.13;;;;;;;8.67;100.00;99849.47;5211579;28;20099;-72
2022/11/16 07:17:06;;;;;;;13.17;5.57;;;;;;;8.60;100.00;99856.03;5212562;28;20029;-74
2022/11/16 07:19:38;;;;;;;9.67;4.53;;;;;;;8.53;100.00;99859.97;5211631;28;20045;-73
2022/11/16 07:22:10;;;;;;;10.67;5.63;;;;;;;8.64;100.00;99854.06;5212372;28;20084;-72
2022/11/16 07:24:41;;;;;;;12.17;5.30;;;;;;;8.59;100.00;99857.81;5200089;28;20026;-73
2022/11/16 07:27:12;;;;;;;12.90;5.70;;;;;;;8.59;100.00;99863.03;5206641;28;20022;-72
2022/11/16 07:29:43;;;;;;;12.57;6.57;;;;;;;8.58;100.00;99863.13;5197408;28;20025;-73
2022/11/16 07:32:15;;;;;;;10.73;5.33;;;;;;;8.58;100.00;99860.53;5195541;28;20080;-72
2022/11/16 07:34:46;;;;;;;16.33;5.97;;;;;;;8.60;100.00;99869.09;5191616;28;20029;-72
2022/11/16 07:37:18;;;;;;;14.63;7.13;;;;;;;8.62;100.00;99877.66;5196251;28;20041;-74
2022/11/16 07:39:49;;;;;;;18.30;7.33;;;;;;;8.59;100.00;99868.25;5192695;28;20030;-74
2022/11/16 07:42:20;;;;;;;15.00;6.77;;;;;;;8.64;100.00;99880.97;5191495;28;20033;-74
2022/11/16 07:44:51;;;;;;;13.33;6.27;;;;;;;8.48;100.00;99871.53;5192611;28;20023;-72
2022/11/16 07:47:23;;;;;;;17.97;6.63;;;;;;;8.64;100.00;99880.97;5211425;28;20018;-73
2022/11/16 07:49:54;;;;;;;23.77;7.70;;;;;;;8.55;100.00;99882.44;5211421;28;20037;-73
2022/11/16 07:52:25;;;;;;;17.17;6.70;;;;;;;8.45;100.00;99891.78;5193651;28;20026;-73
2022/11/16 07:54:57;;;;;;;19.00;6.43;;;;;;;8.58;100.00;99892.69;5210877;28;20022;-73
2022/11/16 07:57:28;;;;;;;14.43;6.67;;;;;;;8.64;100.00;99901.06;5212161;28;20053;-73
2022/11/16 07:59:59;;;;;;;15.13;6.90;;;;;;;8.58;100.00;99889.25;5211350;28;20022;-73
2022/11/16 08:02:30;;;;;;;19.47;5.57;;;;;;;8.60;100.00;99900.41;5211761;28;20108;-73
2022/11/16 08:05:02;;;;;;;11.70;5.33;;;;;;;8.57;100.00;99900.63;5211302;28;20061;-72
2022/11/16 08:07:36;;;;;;;15.90;5.80;;;;;;;8.64;100.00;99901.88;5211417;28;20033;-73
2022/11/16 08:10:08;;;;;;;10.95;4.55;;;;;;;8.64;100.00;99906.28;5197479;28;20868;-72
2022/11/16 08:12:39;;;;;;;9.00;3.80;;;;;;;8.58;100.00;99894.47;5214844;28;20046;-72
2022/11/16 08:15:12;;;;;;;14.70;4.47;;;;;;;8.59;100.00;99886.53;5215461;28;20026;-73
2022/11/16 08:17:44;;;;;;;15.57;4.57;;;;;;;8.66;100.00;99899.16;5215895;28;20037;-73
2022/11/16 08:20:15;;;;;;;12.80;3.87;;;;;;;8.59;100.00;99903.94;5214901;28;20030;-74
2022/11/16 08:22:48;;;;;;;13.03;3.70;;;;;;;8.57;100.00;99898.00;5194073;28;20031;-73
2022/11/16 08:25:19;;;;;;;13.50;3.70;;;;;;;8.62;100.00;99909.00;5212795;28;20053;-73
2022/11/16 08:27:51;;;;;;;11.50;3.83;;;;;;;8.64;100.00;99907.09;5215230;28;20073;-73
2022/11/16 08:30:22;;;;;;;10.50;3.70;;;;;;;8.61;100.00;99901.22;5214010;28;20030;-73
2022/11/16 08:32:53;;;;;;;14.27;4.03;;;;;;;8.78;100.00;99908.78;5214890;28;20564;-72
2022/11/16 08:35:24;;;;;;;10.50;3.40;;;;;;;8.69;100.00;99910.22;5197962;28;20481;-73
2022/11/16 08:37:56;;;;;;;12.13;3.43;;;;;;;8.69;100.00;99904.19;5213980;28;20025;-72
2022/11/16 08:40:27;;;;;;;14.07;4.37;;;;;;;8.77;100.00;99899.28;5214960;28;20037;-73
2022/11/16 08:42:58;;;;;;;11.77;3.63;;;;;;;8.80;100.00;99890.38;5207139;28;20067;-73
2022/11/16 08:45:30;;;;;;;10.80;2.87;;;;;;;8.86;100.00;99904.81;5212237;28;20053;-73
2022/11/16 08:48:02;;;;;;;13.67;3.43;;;;;;;8.86;100.00;99905.66;5198251;28;20120;-73
2022/11/16 08:50:34;;;;;;;13.33;3.13;;;;;;;8.86;100.00;99905.66;5194387;28;20054;-74
2022/11/16 08:53:05;;;;;;;16.67;3.77;;;;;;;8.95;100.00;99910.22;5193565;28;20120;-74
2022/11/16 08:55:36;;;;;;;14.67;3.67;;;;;;;8.90;100.00;99917.53;5194758;28;20081;-73
2022/11/16 08:58:09;;;;;;;26.13;4.90;;;;;;;8.93;100.00;99916.50;5192321;28;20045;-74
2022/11/16 09:00:40;;;;;;;15.07;2.97;;;;;;;8.95;100.00;99915.44;5198491;28;20460;-72
2022/11/16 09:03:11;;;;;;;11.70;3.00;;;;;;;8.89;100.00;99910.66;5215197;28;20038;-72
2022/11/16 09:05:43;;;;;;;17.07;6.03;;;;;;;8.86;100.00;99910.88;5214055;28;20029;-72
2022/11/16 09:08:14;;;;;;;13.90;3.37;;;;;;;8.94;100.00;99921.63;5213437;28;20041;-72
2022/11/16 09:10:45;;;;;;;17.30;3.93;;;;;;;8.98;100.00;99913.56;5213661;28;20176;-72
2022/11/16 09:13:17;;;;;;;15.70;3.50;;;;;;;9.06;100.00;99921.72;5213621;28;20049;-72
2022/11/16 09:15:57;;;;;;;19.30;3.87;;;;;;;9.03;100.00;99922.78;5219820;28;20033;-73
2022/11/16 09:18:30;;;;;;;15.13;3.00;;;;;;;9.08;100.00;99925.06;5204152;28;20032;-73
2022/11/16 09:21:01;;;;;;;13.10;2.83;;;;;;;9.09;100.00;99926.75;5234580;28;20453;-72
2022/11/16 09:23:32;;;;;;;16.77;3.90;;;;;;;9.66;100.00;99916.72;5233628;28;20068;-73
2022/11/16 09:26:04;;;;;;;10.60;2.80;;;;;;;11.10;100.00;99922.00;5217133;28;20034;-73
2022/11/16 09:28:36;;;;;;;11.90;3.03;;;;;;;12.52;100.00;99928.41;5196059;28;20040;-73
2022/11/16 09:31:09;;;;;;;12.37;2.63;;;;;;;13.53;100.00;99932.25;5213214;28;20018;-71
2022/11/16 09:33:40;;;;;;;12.83;2.93;;;;;;;13.52;100.00;99922.72;5232123;28;20475;-73
2022/11/16 09:36:11;;;;;;;8.53;2.90;;;;;;;13.46;100.00;99925.81;5224800;28;20030;-73
2022/11/16 09:38:44;;;;;;;9.47;1.90;;;;;;;13.12;100.00;99926.97;5226304;28;20029;-71
2022/11/16 09:41:15;;;;;;;8.03;2.27;;;;;;;13.18;100.00;99926.41;5233869;28;20029;-73
2022/11/16 09:44:24;;;;;;;10.73;2.20;;;;;;;12.95;100.00;99931.84;5212125;28;20477;-72
2022/11/16 09:46:57;;;;;;;13.87;2.77;;;;;;;12.07;100.00;99932.03;5215263;28;20064;-72
2022/11/16 09:49:34;;;;;;;12.95;2.95;;;;;;;11.73;100.00;99925.91;5234727;28;20784;-73
2022/11/16 09:52:12;;;;;;;8.67;2.57;;;;;;;11.43;100.00;99931.78;5196760;28;20115;-72
2022/11/16 09:54:44;;;;;;;12.67;3.00;;;;;;;11.65;100.00;99932.69;5213420;28;20038;-70
2022/11/16 09:57:20;;;;;;;9.23;2.60;;;;;;;11.46;100.00;99942.03;5232494;28;20057;-71
2022/11/16 10:00:03;;;;;;;10.20;2.27;;;;;;;11.30;100.00;99939.75;5230273;28;20591;-73
2022/11/16 10:02:51;;;;;;;7.53;2.80;;;;;;;11.41;100.00;99933.69;5197709;28;20076;-74
2022/11/16 10:05:32;;;;;;;11.13;2.17;;;;;;;11.33;100.00;99935.13;5215104;28;20727;-73
2022/11/16 10:08:21;;;;;;;12.17;2.80;;;;;;;11.19;100.00;99930.94;5214298;28;20441;-74
2022/11/16 10:11:02;;;;;;;12.57;3.07;;;;;;;11.15;100.00;99932.16;5195908;28;20022;-72
2022/11/16 10:14:07;;;;;;;8.27;2.33;;;;;;;11.18;100.00;99938.94;5231292;28;20049;-73
2022/11/16 10:16:50;;;;;;;11.38;3.28;;;;;;;11.08;100.00;99926.53;5215752;28;20042;-73
2022/11/16 10:19:41;;;;;;;13.07;3.67;;;;;;;11.12;100.00;99927.97;5233863;28;20104;-72
2022/11/16 10:22:30;;;;;;;8.87;4.13;;;;;;;11.05;100.00;99936.44;5234095;28;20021;-72
2022/11/16 10:25:10;;;;;;;8.57;3.10;;;;;;;11.09;100.00;99937.84;5233462;28;20033;-73
2022/11/16 10:27:50;;;;;;;13.07;2.97;;;;;;;11.15;100.00;99931.31;5212328;28;20057;-73
2022/11/16 10:30:22;;;;;;;9.53;2.80;;;;;;;11.12;100.00;99922.72;5212383;28;20060;-73
2022/11/16 10:32:59;;;;;;;12.00;2.83;;;;;;;11.12;100.00;99927.13;5212701;28;20029;-72
2022/11/16 10:35:39;;;;;;;13.27;2.23;;;;;;;11.17;100.00;99924.16;5211348;28;20073;-71
2022/11/16 10:38:13;;;;;;;10.10;2.57;;;;;;;11.20;100.00;99918.69;5226026;28;20030;-71
2022/11/16 10:40:55;;;;;;;17.60;3.83;;;;;;;11.23;100.00;99927.16;5209300;28;20068;-71
2022/11/16 10:43:30;;;;;;;11.90;2.90;;;;;;;11.29;100.00;99938.09;5195189;28;20125;-71
2022/11/16 10:46:27;;;;;;;11.67;2.60;;;;;;;11.28;100.00;99934.63;5212092;28;20030;-72
2022/11/16 10:49:06;;;;;;;7.03;1.67;;;;;;;11.36;100.00;99934.88;5203423;28;20053;-71
2022/11/16 10:51:37;;;;;;;9.47;1.87;;;;;;;11.30;100.00;99917.00;5211251;28;20467;-71
2022/11/16 10:54:13;;;;;;;9.13;1.60;;;;;;;11.34;100.00;99921.06;5210996;28;20033;-72
2022/11/16 10:56:48;;;;;;;9.37;2.20;;;;;;;11.26;100.00;99923.44;5210014;28;20029;-72
2022/11/16 10:59:20;;;;;;;7.40;1.90;;;;;;;11.40;100.00;99916.31;5212228;28;20396;-71
2022/11/16 11:01:56;;;;;;;8.83;1.60;;;;;;;11.31;100.00;99934.41;5194865;28;20034;-72
2022/11/16 11:04:30;;;;;;;11.03;2.13;;;;;;;11.33;100.00;99932.50;5211714;28;20034;-74
2022/11/16 11:07:23;;;;;;;7.85;2.40;;;;;;;11.55;100.00;99922.97;5208933;28;20112;-71
2022/11/16 11:09:54;;;;;;;8.83;2.17;;;;;;;11.38;100.00;99912.00;5203496;28;20018;-72
2022/11/16 11:12:38;;;;;;;8.50;2.77;;;;;;;11.56;100.00;99918.53;5203945;28;20050;-71
2022/11/16 11:15:09;;;;;;;12.15;5.40;;;;;;;11.46;100.00;99923.69;5208258;28;20033;-72
2022/11/16 11:17:46;;;;;;;13.23;3.27;;;;;;;11.47;100.00;99918.31;5228169;28;20440;-71
2022/11/16 11:20:23;;;;;;;9.77;2.23;;;;;;;11.53;100.00;99924.03;5214974;28;20029;-72
2022/11/16 11:23:01;;;;;;;12.47;3.07;;;;;;;11.46;100.00;99915.81;5231613;28;20147;-72
2022/11/16 11:25:35;;;;;;;10.13;3.90;;;;;;;11.38;100.00;99919.88;5219084;28;20037;-72
2022/11/16 11:28:06;;;;;;;10.20;2.28;;;;;;;11.41;100.00;99916.19;5212143;28;20038;-72
2022/11/16 11:30:38;;;;;;;9.37;4.20;;;;;;;11.36;100.00;99910.47;5211496;28;20511;-72
2022/11/16 11:33:14;;;;;;;13.60;2.57;;;;;;;11.45;100.00;99914.16;5211931;28;20021;-72
2022/11/16 11:36:03;;;;;;;10.03;2.50;;;;;;;11.45;100.00;99903.66;5217338;28;20109;-71
2022/11/16 11:38:57;;;;;;;9.67;2.33;;;;;;;11.52;100.00;99904.81;5198703;28;20034;-70
2022/11/16 11:41:42;;;;;;;10.60;2.22;;;;;;;11.49;100.00;99903.28;5210773;28;20068;-71
2022/11/16 11:44:18;;;;;;;9.03;2.20;;;;;;;11.36;100.00;99898.16;5198228;28;20480;-71
2022/11/16 11:47:26;;;;;;;6.70;1.40;;;;;;;11.54;100.00;99894.22;5211520;28;20029;-71
2022/11/16 11:50:09;;;;;;;12.60;2.27;;;;;;;11.51;100.00;99890.06;5210632;28;20042;-71
2022/11/16 11:52:44;;;;;;;14.57;3.00;;;;;;;11.47;100.00;99886.84;5194922;28;20022;-73
2022/11/16 11:55:17;;;;;;;8.07;3.13;;;;;;;11.45;100.00;99880.06;5211826;28;20037;-72
2022/11/16 11:57:51;;;;;;;10.57;2.30;;;;;;;11.51;100.00;99855.97;5210366;28;20024;-73
2022/11/16 12:00:24;;;;;;;12.88;3.38;;;;;;;11.45;100.00;99859.91;5211341;28;20025;-73
2022/11/16 12:03:16;;;;;;;15.07;3.00;;;;;;;11.57;100.00;99865.16;5211129;28;20032;-71
2022/11/16 12:06:23;;;;;;;8.60;2.77;;;;;;;11.60;100.00;99860.50;5206337;28;20032;-71
2022/11/16 12:09:13;;;;;;;6.47;2.10;;;;;;;11.59;100.00;99860.63;5220916;28;20112;-72
2022/11/16 12:12:22;;;;;;;7.50;1.80;;;;;;;11.67;100.00;99867.84;5209942;28;20033;-72
2022/11/16 12:14:56;;;;;;;8.83;2.00;;;;;;;11.52;100.00;99860.25;5210001;28;20108;-73
2022/11/16 12:17:34;;;;;;;7.28;2.10;;;;;;;11.50;100.00;99838.59;5194067;28;20401;-73
2022/11/16 12:20:27;;;;;;;7.07;1.83;;;;;;;11.61;100.00;99842.94;5193421;28;20040;-73
2022/11/16 12:23:15;;;;;;;9.40;3.10;;;;;;;11.48;100.00;99837.88;5209953;28;20117;-72
2022/11/16 12:26:01;;;;;;;10.57;2.47;;;;;;;11.55;100.00;99844.28;5193674;28;20113;-73
2022/11/16 12:28:52;;;;;;;9.33;2.27;;;;;;;11.53;100.00;99845.34;5192442;28;20029;-72
2022/11/16 12:31:35;;;;;;;10.07;2.43;;;;;;;11.54;100.00;99842.59;5210995;28;20040;-72
2022/11/16 12:34:27;;;;;;;6.27;1.57;;;;;;;11.58;100.00;99830.09;5211834;28;20063;-71
2022/11/16 12:37:14;;;;;;;6.23;1.70;;;;;;;11.58;100.00;99838.78;5210079;28;20711;-73
2022/11/16 12:40:07;;;;;;;8.47;1.87;;;;;;;11.59;100.00;99827.34;5192794;28;20080;-73
2022/11/16 12:42:48;;;;;;;4.97;1.53;;;;;;;11.62;100.00;99824.47;5211772;28;20485;-72
2022/11/16 12:45:26;;;;;;;7.40;1.30;;;;;;;11.66;100.00;99813.75;5197802;28;20026;-72